Observation data for White River Lake on 05/24/2020      Previous  Date  Next       Current Mesonet Observations  Soil Data  Daily Summary Page  Observations in Plain Language
KWVS 240500Z 16006KT 19/12 A2984 RMK A01 T01910122  RH  067%=      5-min Rain = 0
KWVS 240505Z 17007KT 19/12 A2984 RMK A01 T01870124  RH  070%=      5-min Rain = 0
KWVS 240510Z 16010KT 19/13 A2984 RMK A01 T01850125  RH  071%=      5-min Rain = 0
KWVS 240515Z 17010KT 18/13 A2984 RMK A01 T01840126  RH  072%=      5-min Rain = 0
KWVS 240520Z 18010KT 18/13 A2985 RMK A01 T01830125  RH  072%=      5-min Rain = 0
KWVS 240525Z 17011KT 18/13 A2985 RMK A01 T01840125  RH  071%=      5-min Rain = 0
KWVS 240530Z 19010KT 18/13 A2984 RMK A01 T01820127  RH  073%=      5-min Rain = 0
KWVS 240535Z 20009KT 18/13 A2984 RMK A01 T01780129  RH  076%=      5-min Rain = 0
KWVS 240540Z 18009KT 17/13 A2984 RMK A01 T01740132  RH  080%=      5-min Rain = 0
KWVS 240545Z 18010KT 17/13 A2984 RMK A01 T01720134  RH  082%=      5-min Rain = 0
KWVS 240550Z 18009KT 17/14 A2985 RMK A01 T01700135  RH  083%=      5-min Rain = 0
KWVS 240555Z 18011KT 17/14 A2985 RMK A01 T01680135  RH  084%=      5-min Rain = 0
KWVS 240600Z 18012KT 17/14 A2985 RMK A01 T01680135  RH  084%=      5-min Rain = 0
KWVS 240605Z 18011KT 17/14 A2986 RMK A01 T01670135  RH  085%=      5-min Rain = 0
KWVS 240610Z 19010KT 17/14 A2985 RMK A01 T01650135  RH  086%=      5-min Rain = 0
KWVS 240615Z 20010KT 16/14 A2985 RMK A01 T01640135  RH  087%=      5-min Rain = 0
KWVS 240620Z 19009KT 16/14 A2985 RMK A01 T01630135  RH  087%=      5-min Rain = 0
KWVS 240625Z 19009KT 16/14 A2985 RMK A01 T01620135  RH  087%=      5-min Rain = 0
KWVS 240630Z 19009KT 16/14 A2985 RMK A01 T01620135  RH  087%=      5-min Rain = 0
KWVS 240635Z 19008KT 16/13 A2985 RMK A01 T01620134  RH  087%=      5-min Rain = 0
KWVS 240640Z 18008KT 16/13 A2986 RMK A01 T01620134  RH  087%=      5-min Rain = 0
KWVS 240645Z 18008KT 16/13 A2985 RMK A01 T01610134  RH  087%=      5-min Rain = 0
KWVS 240650Z 19008KT 16/13 A2985 RMK A01 T01610133  RH  087%=      5-min Rain = 0
KWVS 240655Z 20008KT 16/13 A2985 RMK A01 T01610134  RH  088%=      5-min Rain = 0
KWVS 240700Z 21007KT 16/13 A2985 RMK A01 T01600134  RH  088%=      5-min Rain = 0
KWVS 240705Z 21008KT 16/13 A2985 RMK A01 T01590134  RH  089%=      5-min Rain = 0
KWVS 240710Z 20007KT 16/14 A2985 RMK A01 T01590135  RH  089%=      5-min Rain = 0
KWVS 240715Z 20007KT 16/13 A2985 RMK A01 T01590134  RH  089%=      5-min Rain = 0
KWVS 240720Z 21007KT 16/13 A2985 RMK A01 T01590134  RH  088%=      5-min Rain = 0
KWVS 240725Z 20008KT 16/13 A2985 RMK A01 T01590134  RH  088%=      5-min Rain = 0
KWVS 240730Z 19007KT 16/13 A2985 RMK A01 T01590133  RH  088%=      5-min Rain = 0
KWVS 240735Z 19007KT 16/13 A2985 RMK A01 T01590133  RH  088%=      5-min Rain = 0
KWVS 240740Z 20006KT 16/13 A2985 RMK A01 T01580133  RH  088%=      5-min Rain = 0
KWVS 240745Z 21006KT 16/13 A2985 RMK A01 T01570133  RH  089%=      5-min Rain = 0
KWVS 240750Z 21007KT 16/13 A2985 RMK A01 T01560133  RH  089%=      5-min Rain = 0
KWVS 240755Z 19007KT 16/13 A2985 RMK A01 T01550133  RH  090%=      5-min Rain = 0
KWVS 240800Z 18006KT 16/13 A2985 RMK A01 T01550133  RH  090%=      5-min Rain = 0
KWVS 240805Z 18007KT 15/13 A2985 RMK A01 T01540132  RH  090%=      5-min Rain = 0
KWVS 240810Z 18007KT 15/13 A2985 RMK A01 T01540132  RH  090%=      5-min Rain = 0
KWVS 240815Z 18006KT 16/13 A2985 RMK A01 T01550131  RH  089%=      5-min Rain = 0
KWVS 240820Z 19007KT 16/13 A2985 RMK A01 T01580129  RH  087%=      5-min Rain = 0
KWVS 240825Z 19004KT 16/13 A2985 RMK A01 T01580128  RH  086%=      5-min Rain = 0
KWVS 240830Z 18003KT 16/13 A2985 RMK A01 T01580127  RH  085%=      5-min Rain = 0
KWVS 240835Z 14004KT 16/13 A2985 RMK A01 T01600126  RH  083%=      5-min Rain = 0
KWVS 240840Z 17005KT 16/13 A2985 RMK A01 T01610125  RH  082%=      5-min Rain = 0
KWVS 240845Z 15005KT 16/13 A2984 RMK A01 T01590125  RH  083%=      5-min Rain = 0
KWVS 240850Z 18005KT 16/13 A2985 RMK A01 T01580125  RH  084%=      5-min Rain = 0
KWVS 240855Z 15005KT 16/13 A2984 RMK A01 T01570125  RH  085%=      5-min Rain = 0
KWVS 240900Z 17004KT 16/13 A2984 RMK A01 T01570125  RH  084%=      5-min Rain = 0
KWVS 240905Z 16004KT 16/13 A2984 RMK A01 T01580125  RH  084%=      5-min Rain = 0
KWVS 240910Z 17003KT 16/12 A2984 RMK A01 T01580124  RH  083%=      5-min Rain = 0
KWVS 240915Z 16004KT 16/12 A2985 RMK A01 T01590124  RH  082%=      5-min Rain = 0
KWVS 240920Z 16004KT 16/12 A2985 RMK A01 T01600123  RH  081%=      5-min Rain = 0
KWVS 240925Z 15004KT 16/12 A2985 RMK A01 T01600122  RH  081%=      5-min Rain = 0
KWVS 240930Z 15006KT 16/12 A2985 RMK A01 T01590122  RH  082%=      5-min Rain = 0
KWVS 240935Z 15007KT 16/12 A2985 RMK A01 T01580123  RH  083%=      5-min Rain = 0
KWVS 240940Z 15007KT 16/12 A2985 RMK A01 T01560123  RH  084%=      5-min Rain = 0
KWVS 240945Z 16007KT 16/12 A2985 RMK A01 T01550123  RH  084%=      5-min Rain = 0
KWVS 240950Z 16006KT 15/12 A2985 RMK A01 T01540123  RH  085%=      5-min Rain = 0
KWVS 240955Z 17005KT 15/12 A2985 RMK A01 T01530124  RH  086%=      5-min Rain = 0
KWVS 241000Z 17004KT 15/12 A2985 RMK A01 T01520123  RH  087%=      5-min Rain = 0
KWVS 241005Z 17005KT 15/12 A2985 RMK A01 T01520123  RH  086%=      5-min Rain = 0
KWVS 241010Z 17005KT 15/12 A2985 RMK A01 T01530123  RH  085%=      5-min Rain = 0
KWVS 241015Z 17005KT 15/12 A2985 RMK A01 T01530122  RH  085%=      5-min Rain = 0
KWVS 241020Z 17005KT 15/12 A2985 RMK A01 T01540122  RH  084%=      5-min Rain = 0
KWVS 241025Z 16005KT 16/12 A2985 RMK A01 T01550121  RH  084%=      5-min Rain = 0
KWVS 241030Z 16004KT 16/12 A2985 RMK A01 T01550121  RH  083%=      5-min Rain = 0
KWVS 241035Z 15004KT 16/12 A2985 RMK A01 T01550121  RH  083%=      5-min Rain = 0
KWVS 241040Z 15004KT 15/12 A2985 RMK A01 T01540120  RH  083%=      5-min Rain = 0
KWVS 241045Z 15004KT 15/12 A2984 RMK A01 T01530120  RH  084%=      5-min Rain = 0
KWVS 241050Z 16004KT 15/12 A2984 RMK A01 T01530120  RH  084%=      5-min Rain = 0
KWVS 241055Z 16005KT 15/12 A2984 RMK A01 T01520120  RH  084%=      5-min Rain = 0
KWVS 241100Z 16005KT 15/12 A2984 RMK A01 T01500120  RH  085%=      5-min Rain = 0
KWVS 241105Z 17004KT 15/12 A2984 RMK A01 T01500121  RH  086%=      5-min Rain = 0
KWVS 241110Z 18005KT 15/12 A2984 RMK A01 T01510121  RH  085%=      5-min Rain = 0
KWVS 241115Z 18005KT 15/12 A2984 RMK A01 T01510120  RH  085%=      5-min Rain = 0
KWVS 241120Z 18005KT 15/12 A2984 RMK A01 T01500120  RH  085%=      5-min Rain = 0
KWVS 241125Z 17005KT 15/12 A2984 RMK A01 T01500120  RH  085%=      5-min Rain = 0
KWVS 241130Z 18006KT 15/12 A2984 RMK A01 T01500119  RH  085%=      5-min Rain = 0
KWVS 241135Z 17005KT 15/12 A2984 RMK A01 T01490119  RH  085%=      5-min Rain = 0
KWVS 241140Z 16005KT 15/12 A2984 RMK A01 T01500119  RH  085%=      5-min Rain = 0
KWVS 241145Z 16005KT 15/12 A2984 RMK A01 T01500119  RH  085%=      5-min Rain = 0
KWVS 241150Z 16004KT 15/12 A2985 RMK A01 T01510120  RH  085%=      5-min Rain = 0
KWVS 241155Z 15005KT 15/12 A2985 RMK A01 T01520119  RH  084%=      5-min Rain = 0
KWVS 241200Z 15006KT 15/12 A2985 RMK A01 T01510119  RH  085%=      5-min Rain = 0
KWVS 241205Z 15006KT 15/12 A2986 RMK A01 T01510120  RH  085%=      5-min Rain = 0
KWVS 241210Z 15004KT 15/12 A2986 RMK A01 T01520121  RH  085%=      5-min Rain = 0
KWVS 241215Z 15004KT 16/12 A2986 RMK A01 T01550122  RH  084%=      5-min Rain = 0
KWVS 241220Z 16002KT 16/12 A2986 RMK A01 T01590122  RH  082%=      5-min Rain = 0
KWVS 241225Z 18002KT 16/12 A2987 RMK A01 T01610123  RH  081%=      5-min Rain = 0
KWVS 241230Z 25001KT 16/13 A2987 RMK A01 T01610128  RH  084%=      5-min Rain = 0
KWVS 241235Z 25001KT 16/13 A2987 RMK A01 T01610128  RH  084%=      5-min Rain = 0
KWVS 241240Z 22001KT 16/13 A2987 RMK A01 T01640129  RH  083%=      5-min Rain = 0
KWVS 241245Z 17001KT 17/13 A2987 RMK A01 T01680130  RH  081%=      5-min Rain = 0
KWVS 241250Z 17004KT 17/13 A2987 RMK A01 T01700129  RH  080%=      5-min Rain = 0
KWVS 241255Z 17004KT 17/13 A2987 RMK A01 T01740132  RH  079%=      5-min Rain = 0
KWVS 241300Z 17004KT 18/13 A2987 RMK A01 T01770133  RH  079%=      5-min Rain = 0
KWVS 241305Z 16005KT 18/13 A2987 RMK A01 T01800132  RH  076%=      5-min Rain = 0
KWVS 241310Z 16006KT 18/13 A2987 RMK A01 T01820133  RH  076%=      5-min Rain = 0
KWVS 241315Z 16006KT 18/13 A2986 RMK A01 T01820133  RH  076%=      5-min Rain = 0
KWVS 241320Z 16006KT 18/14 A2986 RMK A01 T01840135  RH  076%=      5-min Rain = 0
KWVS 241325Z 16007KT 19/14 A2986 RMK A01 T01860137  RH  076%=      5-min Rain = 0
KWVS 241330Z 15007KT 19/14 A2986 RMK A01 T01900140  RH  076%=      5-min Rain = 0
KWVS 241335Z 16009KT 19/14 A2986 RMK A01 T01940139  RH  074%=      5-min Rain = 0
KWVS 241340Z 16010KT 20/14 A2986 RMK A01 T01950137  RH  072%=      5-min Rain = 0
KWVS 241345Z 16011KT 20/14 A2985 RMK A01 T01950137  RH  072%=      5-min Rain = 0
KWVS 241350Z 16010KT 20/14 A2985 RMK A01 T01990140  RH  072%=      5-min Rain = 0
KWVS 241355Z 16012KT 20/14 A2985 RMK A01 T02000136  RH  070%=      5-min Rain = 0
KWVS 241400Z 16013KT 20/14 A2985 RMK A01 T02020137  RH  069%=      5-min Rain = 0
KWVS 241405Z 17014KT 20/14 A2984 RMK A01 T02040135  RH  067%=      5-min Rain = 0
KWVS 241410Z 17015KT 21/14 A2984 RMK A01 T02060135  RH  067%=      5-min Rain = 0
KWVS 241415Z 17012KT 21/14 A2984 RMK A01 T02090140  RH  067%=      5-min Rain = 0
KWVS 241420Z 17016G21KT 21/14 A2984 RMK A01 T02110139  RH  066%=      5-min Rain = 0
KWVS 241425Z 18016G21KT 21/14 A2984 RMK A01 T02100139  RH  067%=      5-min Rain = 0.01
KWVS 241430Z 18014G21KT 21/14 A2985 RMK A01 T02100141  RH  067%=      5-min Rain = 0
KWVS 241435Z 18015G20KT 21/14 A2985 RMK A01 T02130144  RH  068%=      5-min Rain = 0
KWVS 241440Z 18013G19KT 21/15 A2985 RMK A01 T02140146  RH  068%=      5-min Rain = 0
KWVS 241445Z 18017G22KT 21/15 A2985 RMK A01 T02130145  RH  068%=      5-min Rain = 0
KWVS 241450Z 18013G19KT 22/15 A2985 RMK A01 T02160149  RH  069%=      5-min Rain = 0
KWVS 241455Z 18014KT 22/15 A2985 RMK A01 T02170149  RH  068%=      5-min Rain = 0
KWVS 241500Z 17011G18KT 22/15 A2985 RMK A01 T02220154  RH  068%=      5-min Rain = 0
KWVS 241505Z 18017KT 22/15 A2985 RMK A01 T02220152  RH  067%=      5-min Rain = 0
KWVS 241510Z 18015G20KT 22/15 A2985 RMK A01 T02210153  RH  068%=      5-min Rain = 0
KWVS 241515Z 17016G22KT 23/16 A2985 RMK A01 T02250155  RH  068%=      5-min Rain = 0
KWVS 241520Z 18017KT 23/16 A2985 RMK A01 T02250155  RH  067%=      5-min Rain = 0
KWVS 241525Z 17014G21KT 23/16 A2985 RMK A01 T02280157  RH  067%=      5-min Rain = 0
KWVS 241530Z 18017G22KT 23/16 A2985 RMK A01 T02310158  RH  067%=      5-min Rain = 0
KWVS 241535Z 18015G20KT 23/16 A2985 RMK A01 T02340161  RH  067%=      5-min Rain = 0
KWVS 241540Z 17016G24KT 24/16 A2985 RMK A01 T02390163  RH  066%=      5-min Rain = 0
KWVS 241545Z 18017G24KT 24/16 A2984 RMK A01 T02410164  RH  065%=      5-min Rain = 0
KWVS 241550Z 17020G25KT 24/16 A2984 RMK A01 T02400162  RH  065%=      5-min Rain = 0
KWVS 241555Z 17020G29KT 24/16 A2984 RMK A01 T02410163  RH  064%=      5-min Rain = 0
KWVS 241600Z 18021G28KT 24/16 A2984 RMK A01 T02420161  RH  064%=      5-min Rain = 0
KWVS 241605Z 18020G25KT 24/16 A2984 RMK A01 T02420162  RH  064%=      5-min Rain = 0
KWVS 241610Z 18017G23KT 25/16 A2984 RMK A01 T02450164  RH  064%=      5-min Rain = 0
KWVS 241615Z 17018KT 25/16 A2984 RMK A01 T02470163  RH  063%=      5-min Rain = 0
KWVS 241620Z 17018G24KT 25/16 A2984 RMK A01 T02460162  RH  062%=      5-min Rain = 0
KWVS 241625Z 18017KT 25/16 A2983 RMK A01 T02450163  RH  063%=      5-min Rain = 0
KWVS 241630Z 17016G23KT 25/17 A2983 RMK A01 T02480165  RH  063%=      5-min Rain = 0
KWVS 241635Z 17018G23KT 25/17 A2983 RMK A01 T02520166  RH  062%=      5-min Rain = 0
KWVS 241640Z 17017G23KT 25/17 A2983 RMK A01 T02520165  RH  061%=      5-min Rain = 0
KWVS 241645Z 17017KT 25/17 A2983 RMK A01 T02530165  RH  061%=      5-min Rain = 0
KWVS 241650Z 16019G26KT 25/16 A2983 RMK A01 T02510163  RH  061%=      5-min Rain = 0
KWVS 241655Z 17017G24KT 26/17 A2983 RMK A01 T02560166  RH  060%=      5-min Rain = 0
KWVS 241700Z 17017G24KT 26/17 A2983 RMK A01 T02570165  RH  060%=      5-min Rain = 0
KWVS 241705Z 17018KT 26/17 A2983 RMK A01 T02620169  RH  059%=      5-min Rain = 0
KWVS 241710Z 17017KT 26/17 A2983 RMK A01 T02590166  RH  059%=      5-min Rain = 0
KWVS 241715Z 18016KT 26/17 A2983 RMK A01 T02570167  RH  061%=      5-min Rain = 0
KWVS 241720Z 18017G22KT 26/17 A2983 RMK A01 T02600168  RH  060%=      5-min Rain = 0
KWVS 241725Z 17018G25KT 26/17 A2983 RMK A01 T02620168  RH  059%=      5-min Rain = 0
KWVS 241730Z 17016G21KT 26/17 A2983 RMK A01 T02640170  RH  059%=      5-min Rain = 0
KWVS 241735Z 18017G24KT 27/17 A2983 RMK A01 T02650170  RH  059%=      5-min Rain = 0
KWVS 241740Z 16016KT 26/17 A2983 RMK A01 T02640169  RH  059%=      5-min Rain = 0
KWVS 241745Z 17017G22KT 27/17 A2983 RMK A01 T02650173  RH  060%=      5-min Rain = 0
KWVS 241750Z 17017KT 27/17 A2982 RMK A01 T02680172  RH  059%=      5-min Rain = 0
KWVS 241755Z 16015G20KT 27/17 A2982 RMK A01 T02660172  RH  059%=      5-min Rain = 0
KWVS 241800Z 16017G22KT 26/17 A2982 RMK A01 T02630170  RH  059%=      5-min Rain = 0
KWVS 241805Z 17015G22KT 26/17 A2982 RMK A01 T02630172  RH  061%=      5-min Rain = 0
KWVS 241810Z 16015G20KT 27/17 A2982 RMK A01 T02650173  RH  060%=      5-min Rain = 0
KWVS 241815Z 18016KT 26/17 A2982 RMK A01 T02620171  RH  060%=      5-min Rain = 0
KWVS 241820Z 17015G23KT 27/17 A2981 RMK A01 T02670172  RH  059%=      5-min Rain = 0
KWVS 241825Z 17016KT 27/18 A2981 RMK A01 T02730175  RH  058%=      5-min Rain = 0
KWVS 241830Z 17016KT 27/18 A2981 RMK A01 T02720175  RH  058%=      5-min Rain = 0
KWVS 241835Z 18014KT 27/17 A2981 RMK A01 T02680173  RH  059%=      5-min Rain = 0
KWVS 241840Z 18015KT 28/18 A2981 RMK A01 T02760178  RH  058%=      5-min Rain = 0
KWVS 241845Z 17016G21KT 27/17 A2981 RMK A01 T02710173  RH  058%=      5-min Rain = 0
KWVS 241850Z 17014G19KT 27/17 A2981 RMK A01 T02740174  RH  057%=      5-min Rain = 0
KWVS 241855Z 19014G19KT 27/17 A2981 RMK A01 T02710174  RH  058%=      5-min Rain = 0
KWVS 241900Z 19013G18KT 27/17 A2981 RMK A01 T02740173  RH  057%=      5-min Rain = 0
KWVS 241905Z 17012G18KT 27/17 A2981 RMK A01 T02730173  RH  057%=      5-min Rain = 0
KWVS 241910Z 16013KT 28/17 A298 RMK A01 T02750172  RH  056%=      5-min Rain = 0
KWVS 241915Z 16015G21KT 28/18 A298 RMK A01 T02750175  RH  057%=      5-min Rain = 0
KWVS 241920Z 17013KT 28/17 A298 RMK A01 T02770174  RH  056%=      5-min Rain = 0
KWVS 241925Z 18012G18KT 27/17 A298 RMK A01 T02720171  RH  057%=      5-min Rain = 0
KWVS 241930Z 18011KT 27/17 A2979 RMK A01 T02730171  RH  057%=      5-min Rain = 0
KWVS 241935Z 16013G18KT 28/17 A2979 RMK A01 T02790172  RH  055%=      5-min Rain = 0
KWVS 241940Z 17012KT 28/17 A2979 RMK A01 T02790173  RH  055%=      5-min Rain = 0
KWVS 241945Z 18012KT 29/18 A2979 RMK A01 T02890176  RH  053%=      5-min Rain = 0
KWVS 241950Z 19012KT 29/17 A2978 RMK A01 T02890174  RH  052%=      5-min Rain = 0
KWVS 241955Z 17013G18KT 28/17 A2978 RMK A01 T02830174  RH  054%=      5-min Rain = 0
KWVS 242000Z 17012G20KT 29/17 A2978 RMK A01 T02850174  RH  054%=      5-min Rain = 0
KWVS 242005Z 18011G16KT 29/17 A2978 RMK A01 T02880172  RH  052%=      5-min Rain = 0
KWVS 242010Z 16012G19KT 29/17 A2977 RMK A01 T02880172  RH  052%=      5-min Rain = 0
KWVS 242015Z 17012G17KT 29/17 A2977 RMK A01 T02930174  RH  051%=      5-min Rain = 0
KWVS 242020Z 17013G19KT 30/17 A2977 RMK A01 T02960173  RH  050%=      5-min Rain = 0
KWVS 242025Z 17010G17KT 29/17 A2977 RMK A01 T02930172  RH  051%=      5-min Rain = 0
KWVS 242030Z 16011KT 30/18 A2976 RMK A01 T02950175  RH  051%=      5-min Rain = 0
KWVS 242035Z 16012G19KT 30/18 A2976 RMK A01 T02970176  RH  051%=      5-min Rain = 0
KWVS 242040Z 18010G18KT 30/17 A2976 RMK A01 T02970174  RH  050%=      5-min Rain = 0
KWVS 242045Z 18012G17KT 30/17 A2975 RMK A01 T02980173  RH  049%=      5-min Rain = 0
KWVS 242050Z 16011KT 30/18 A2975 RMK A01 T02980175  RH  050%=      5-min Rain = 0
KWVS 242055Z 16010KT 29/17 A2975 RMK A01 T02920172  RH  051%=      5-min Rain = 0
KWVS 242100Z 16010G15KT 30/17 A2974 RMK A01 T02990174  RH  050%=      5-min Rain = 0
KWVS 242105Z 18009G15KT 30/18 A2974 RMK A01 T03010178  RH  050%=      5-min Rain = 0
KWVS 242110Z 15012G17KT 30/17 A2974 RMK A01 T02960174  RH  050%=      5-min Rain = 0
KWVS 242115Z 17011G17KT 30/18 A2974 RMK A01 T03010175  RH  049%=      5-min Rain = 0
KWVS 242120Z 16010KT 30/18 A2973 RMK A01 T03000175  RH  050%=      5-min Rain = 0
KWVS 242125Z 15010G15KT 30/17 A2973 RMK A01 T03040174  RH  048%=      5-min Rain = 0
KWVS 242130Z 18009KT 30/17 A2972 RMK A01 T03030171  RH  048%=      5-min Rain = 0
KWVS 242135Z 17009KT 30/17 A2972 RMK A01 T02970171  RH  049%=      5-min Rain = 0
KWVS 242140Z 15008KT 30/17 A2971 RMK A01 T02960172  RH  050%=      5-min Rain = 0
KWVS 242145Z 16008G14KT 30/17 A2971 RMK A01 T03020172  RH  048%=      5-min Rain = 0
KWVS 242150Z 14008G13KT 30/17 A2971 RMK A01 T02970169  RH  049%=      5-min Rain = 0
KWVS 242155Z 15009G16KT 30/17 A297 RMK A01 T03010170  RH  047%=      5-min Rain = 0
KWVS 242200Z 14010G15KT 30/17 A297 RMK A01 T03040171  RH  047%=      5-min Rain = 0
KWVS 242205Z 15011G18KT 30/17 A2969 RMK A01 T03040169  RH  047%=      5-min Rain = 0
KWVS 242210Z 13010KT 30/17 A2969 RMK A01 T03020168  RH  047%=      5-min Rain = 0
KWVS 242215Z 14012KT 31/17 A2969 RMK A01 T03060171  RH  047%=      5-min Rain = 0
KWVS 242220Z 16013KT 30/17 A2969 RMK A01 T03040167  RH  046%=      5-min Rain = 0
KWVS 242225Z 15012G17KT 30/17 A2969 RMK A01 T02990166  RH  047%=      5-min Rain = 0
KWVS 242230Z 15010G19KT 30/17 A2969 RMK A01 T03030165  RH  046%=      5-min Rain = 0
KWVS 242235Z 16011G16KT 30/17 A2968 RMK A01 T02990165  RH  047%=      5-min Rain = 0
KWVS 242240Z 13011G17KT 30/17 A2968 RMK A01 T02980165  RH  047%=      5-min Rain = 0
KWVS 242245Z 14012KT 29/16 A2968 RMK A01 T02930162  RH  047%=      5-min Rain = 0
KWVS 242250Z 14013KT 29/16 A2967 RMK A01 T02910159  RH  047%=      5-min Rain = 0
KWVS 242255Z 15011KT 29/16 A2967 RMK A01 T02910159  RH  047%=      5-min Rain = 0
KWVS 242300Z 15009KT 29/16 A2967 RMK A01 T02910161  RH  048%=      5-min Rain = 0
KWVS 242305Z 13007KT 29/16 A2966 RMK A01 T02900164  RH  049%=      5-min Rain = 0
KWVS 242310Z 13005KT 29/17 A2966 RMK A01 T02900167  RH  050%=      5-min Rain = 0
KWVS 242315Z 14006KT 29/17 A2967 RMK A01 T02890168  RH  050%=      5-min Rain = 0
KWVS 242320Z 13006KT 29/17 A2967 RMK A01 T02880167  RH  050%=      5-min Rain = 0
KWVS 242325Z 12005KT 29/17 A2967 RMK A01 T02870169  RH  052%=      5-min Rain = 0
KWVS 242330Z 11005KT 29/17 A2967 RMK A01 T02850168  RH  051%=      5-min Rain = 0
KWVS 242335Z 11004KT 28/17 A2967 RMK A01 T02840170  RH  053%=      5-min Rain = 0
KWVS 242340Z 10004KT 28/17 A2967 RMK A01 T02840168  RH  052%=      5-min Rain = 0
KWVS 242345Z 10005KT 28/17 A2967 RMK A01 T02830169  RH  053%=      5-min Rain = 0
KWVS 242350Z 09006KT 28/17 A2966 RMK A01 T02820169  RH  053%=      5-min Rain = 0
KWVS 242355Z 08007KT 28/17 A2965 RMK A01 T02790172  RH  055%=      5-min Rain = 0
KWVS 250000Z 08006KT 28/17 A2966 RMK A01 T02770172  RH  055%=      5-min Rain = 0
KWVS 250005Z 05005KT 28/17 A2965 RMK A01 T02760173  RH  056%=      5-min Rain = 0
KWVS 250010Z 02005KT 27/18 A2965 RMK A01 T02730176  RH  058%=      5-min Rain = 0
KWVS 250015Z 32009G15KT 27/18 A2965 RMK A01 T02680180  RH  062%=      5-min Rain = 0
KWVS 250020Z 29016G31KT 27/16 A2966 RMK A01 T02670161  RH  055%=      5-min Rain = 0
KWVS 250025Z 29039G54KT 22/12 A2966 RMK A01 T02170116  RH  055%=      5-min Rain = 0.07
KWVS 250030Z 29035G49KT 16/13 A2967 RMK A01 T01550127  RH  087%=      5-min Rain = 0.17
KWVS 250035Z 27017G31KT 15/13 A2974 RMK A01 T01490127  RH  090%=      5-min Rain = 0.1
KWVS 250040Z 17012G18KT 15/13 A2977 RMK A01 T01510129  RH  090%=      5-min Rain = 0.13
KWVS 250045Z 15015G20KT 14/12 A2977 RMK A01 T01430120  RH  089%=      5-min Rain = 0.18
KWVS 250050Z 12006G14KT 13/11 A2975 RMK A01 T01280110  RH  092%=      5-min Rain = 0.18
KWVS 250055Z 01009G14KT 13/11 A2974 RMK A01 T01280114  RH  094%=      5-min Rain = 0.11
KWVS 250100Z 03010KT 13/12 A2975 RMK A01 T01340119  RH  094%=      5-min Rain = 0.05
KWVS 250105Z 10009KT 14/12 A2979 RMK A01 T01350119  RH  093%=      5-min Rain = 0.02
KWVS 250110Z 12011KT 13/12 A2981 RMK A01 T01320118  RH  094%=      5-min Rain = 0.02
KWVS 250115Z 07006KT 13/12 A2981 RMK A01 T01320119  RH  095%=      5-min Rain = 0.02
KWVS 250120Z 07012G17KT 13/12 A2978 RMK A01 T01330120  RH  096%=      5-min Rain = 0.02
KWVS 250125Z 09021G27KT 13/12 A2972 RMK A01 T01340121  RH  096%=      5-min Rain = 0.01
KWVS 250130Z 10017G29KT 14/12 A297 RMK A01 T01370124  RH  096%=      5-min Rain = 0
KWVS 250135Z 11015G23KT 14/13 A2973 RMK A01 T01420126  RH  094%=      5-min Rain = 0
KWVS 250140Z 31016G28KT 14/13 A2979 RMK A01 T01440126  RH  092%=      5-min Rain = 0
KWVS 250145Z 01007G16KT 15/12 A2979 RMK A01 T01520122  RH  086%=      5-min Rain = 0
KWVS 250150Z 00001KT 16/12 A298 RMK A01 T01590119  RH  080%=      5-min Rain = 0
KWVS 250155Z 07011G16KT 16/12 A2977 RMK A01 T01570122  RH  082%=      5-min Rain = 0
KWVS 250200Z 34007KT 16/13 A2979 RMK A01 T01580125  RH  084%=      5-min Rain = 0.01
KWVS 250205Z 07011KT 16/13 A2977 RMK A01 T01600125  RH  083%=      5-min Rain = 0
KWVS 250210Z 10009KT 17/12 A2978 RMK A01 T01720121  RH  075%=      5-min Rain = 0
KWVS 250215Z 06011KT 16/13 A2976 RMK A01 T01620125  RH  082%=      5-min Rain = 0.01
KWVS 250220Z 03013G20KT 16/13 A2975 RMK A01 T01600127  RH  084%=      5-min Rain = 0
KWVS 250225Z 06015G20KT 17/12 A2973 RMK A01 T01680123  RH  077%=      5-min Rain = 0
KWVS 250230Z 08013KT 17/12 A2973 RMK A01 T01680123  RH  078%=      5-min Rain = 0.01
KWVS 250235Z 08011KT 16/13 A2973 RMK A01 T01630126  RH  082%=      5-min Rain = 0
KWVS 250240Z 09011KT 16/13 A2972 RMK A01 T01640126  RH  081%=      5-min Rain = 0.01
KWVS 250245Z 06012KT 17/13 A2971 RMK A01 T01670127  RH  080%=      5-min Rain = 0
KWVS 250250Z 06009G16KT 17/13 A297 RMK A01 T01650128  RH  082%=      5-min Rain = 0
KWVS 250255Z 06017G23KT 16/13 A2968 RMK A01 T01640127  RH  082%=      5-min Rain = 0
KWVS 250300Z 05019G24KT 16/13 A2967 RMK A01 T01640128  RH  082%=      5-min Rain = 0
KWVS 250305Z 04017G22KT 17/13 A2966 RMK A01 T01690126  RH  078%=      5-min Rain = 0
KWVS 250310Z 05018G23KT 17/13 A2964 RMK A01 T01650128  RH  082%=      5-min Rain = 0
KWVS 250315Z 05020G26KT 17/13 A2963 RMK A01 T01660128  RH  082%=      5-min Rain = 0
KWVS 250320Z 06017G23KT 16/13 A2963 RMK A01 T01620132  RH  085%=      5-min Rain = 0
KWVS 250325Z 07014KT 16/13 A2965 RMK A01 T01610132  RH  086%=      5-min Rain = 0
KWVS 250330Z 07010G17KT 16/13 A2965 RMK A01 T01620130  RH  085%=      5-min Rain = 0
KWVS 250335Z 06010G15KT 16/13 A2966 RMK A01 T01630129  RH  084%=      5-min Rain = 0
KWVS 250340Z 05011G17KT 16/13 A2967 RMK A01 T01640129  RH  083%=      5-min Rain = 0
KWVS 250345Z 06011G17KT 17/13 A2967 RMK A01 T01660128  RH  081%=      5-min Rain = 0
KWVS 250350Z 06012G18KT 17/13 A2968 RMK A01 T01660127  RH  081%=      5-min Rain = 0
KWVS 250355Z 06011G17KT 17/13 A297 RMK A01 T01680125  RH  079%=      5-min Rain = 0
KWVS 250400Z 07006KT 17/13 A2972 RMK A01 T01680125  RH  079%=      5-min Rain = 0
KWVS 250405Z 12006KT 17/13 A2974 RMK A01 T01670125  RH  080%=      5-min Rain = 0
KWVS 250410Z 12004KT 17/13 A2975 RMK A01 T01670126  RH  080%=      5-min Rain = 0
KWVS 250415Z 09004KT 17/12 A2976 RMK A01 T01670124  RH  079%=      5-min Rain = 0
KWVS 250420Z 08005KT 17/12 A2976 RMK A01 T01680124  RH  078%=      5-min Rain = 0
KWVS 250425Z 10005KT 17/12 A2977 RMK A01 T01680124  RH  078%=      5-min Rain = 0
KWVS 250430Z 10006G11KT 17/12 A2978 RMK A01 T01680123  RH  078%=      5-min Rain = 0
KWVS 250435Z 08006KT 17/12 A298 RMK A01 T01690123  RH  077%=      5-min Rain = 0
KWVS 250440Z 09008G13KT 17/12 A298 RMK A01 T01680122  RH  077%=      5-min Rain = 0
KWVS 250445Z 08009KT 17/12 A298 RMK A01 T01690122  RH  076%=      5-min Rain = 0
KWVS 250450Z 09008KT 17/12 A2981 RMK A01 T01680122  RH  078%=      5-min Rain = 0
KWVS 250455Z 09009G15KT 17/12 A2981 RMK A01 T01670122  RH  078%=      5-min Rain = 0

Page generated in 0.0166 seconds.